Terminal Aerodrome Forecast
Issued by NWS

Home | Current Version | Previous Version | Graphics & Text | Print | Product List | Glossary On
Versions: 1 2 3 4 5 6 7 8 9 10 11 12 13 14 15 16 17 18 19
000
FTUS41 KCLE 180550
TAFFDY
TAF
KFDY 180550Z 1806/1906 19010G20KT 6SM -TSRA OVC035CB WS020/20045KT
      TEMPO 1806/1807 1 1/2SM +TSRA OVC025CB
     FM180800 20009KT P6SM VCSH OVC035 WS020/22040KT
     FM181200 20008KT 4SM TSRA BR OVC007CB
     FM181500 21008KT 3SM -SHRA BR OVC003
     FM181800 20015G35KT 5SM -SHRA BR OVC003
     FM182200 32020G35KT 3SM SHRA BR OVC003
     FM190400 32020G35KT P6SM OVC015=

USA.gov is the U.S. government's official web portal to all federal, state and local government web resources and services.